sensor_id;sensor_type;location;lat;lon;timestamp;P1;durP1;ratioP1;P2;durP2;ratioP2
15915;SDS011;8057;47.830;-3.870;2024-02-26T01:19:04;6.50;;;3.93;;
15915;SDS011;8057;47.830;-3.870;2024-02-26T01:23:14;5.20;;;3.70;;
15915;SDS011;8057;47.830;-3.870;2024-02-26T01:27:23;6.87;;;3.20;;
15915;SDS011;8057;47.830;-3.870;2024-02-26T01:31:34;7.13;;;3.63;;
15915;SDS011;8057;47.830;-3.870;2024-02-26T01:35:44;9.37;;;3.83;;
15915;SDS011;8057;47.830;-3.870;2024-02-26T01:39:53;6.03;;;3.80;;
15915;SDS011;8057;47.830;-3.870;2024-02-26T01:44:02;7.13;;;3.77;;
15915;SDS011;8057;47.830;-3.870;2024-02-26T01:48:11;7.43;;;3.60;;
15915;SDS011;8057;47.830;-3.870;2024-02-26T01:52:22;7.17;;;3.40;;
15915;SDS011;8057;47.830;-3.870;2024-02-26T01:56:31;8.27;;;4.10;;
15915;SDS011;8057;47.830;-3.870;2024-02-26T02:00:41;8.10;;;3.30;;
15915;SDS011;8057;47.830;-3.870;2024-02-26T02:04:51;12.27;;;4.47;;
15915;SDS011;8057;47.830;-3.870;2024-02-26T02:09:02;9.67;;;3.07;;
15915;SDS011;8057;47.830;-3.870;2024-02-26T02:13:13;10.90;;;3.27;;
15915;SDS011;8057;47.830;-3.870;2024-02-26T02:17:22;6.43;;;3.43;;
15915;SDS011;8057;47.830;-3.870;2024-02-26T02:21:33;7.30;;;3.30;;
15915;SDS011;8057;47.830;-3.870;2024-02-26T02:25:42;12.50;;;3.50;;
15915;SDS011;8057;47.830;-3.870;2024-02-26T02:29:51;7.90;;;3.90;;
15915;SDS011;8057;47.830;-3.870;2024-02-26T02:34:00;8.50;;;3.53;;
15915;SDS011;8057;47.830;-3.870;2024-02-26T02:38:11;7.37;;;3.40;;
15915;SDS011;8057;47.830;-3.870;2024-02-26T02:42:20;7.67;;;4.00;;
15915;SDS011;8057;47.830;-3.870;2024-02-26T02:46:29;7.57;;;3.50;;
15915;SDS011;8057;47.830;-3.870;2024-02-26T02:50:40;6.17;;;3.00;;
15915;SDS011;8057;47.830;-3.870;2024-02-26T02:54:50;4.80;;;2.30;;
15915;SDS011;8057;47.830;-3.870;2024-02-26T02:58:59;3.20;;;1.60;;
15915;SDS011;8057;47.830;-3.870;2024-02-26T03:03:08;3.03;;;1.23;;
15915;SDS011;8057;47.830;-3.870;2024-02-26T03:07:17;3.00;;;1.00;;
15915;SDS011;8057;47.830;-3.870;2024-02-26T03:11:29;1.77;;;0.60;;
15915;SDS011;8057;47.830;-3.870;2024-02-26T03:15:38;1.33;;;0.67;;
15915;SDS011;8057;47.830;-3.870;2024-02-26T03:19:47;2.20;;;0.70;;
15915;SDS011;8057;47.830;-3.870;2024-02-26T03:24:00;1.33;;;0.70;;
15915;SDS011;8057;47.830;-3.870;2024-02-26T03:28:10;5.43;;;1.13;;
15915;SDS011;8057;47.830;-3.870;2024-02-26T03:32:19;3.27;;;0.90;;
15915;SDS011;8057;47.830;-3.870;2024-02-26T03:36:28;2.27;;;1.00;;
15915;SDS011;8057;47.830;-3.870;2024-02-26T03:40:37;1.83;;;0.63;;
15915;SDS011;8057;47.830;-3.870;2024-02-26T03:44:47;2.40;;;0.83;;
15915;SDS011;8057;47.830;-3.870;2024-02-26T03:48:56;3.70;;;1.00;;
15915;SDS011;8057;47.830;-3.870;2024-02-26T03:53:06;2.80;;;0.80;;
15915;SDS011;8057;47.830;-3.870;2024-02-26T03:57:20;2.87;;;0.90;;
15915;SDS011;8057;47.830;-3.870;2024-02-26T04:01:30;3.20;;;0.83;;
15915;SDS011;8057;47.830;-3.870;2024-02-26T04:05:39;3.03;;;0.97;;
15915;SDS011;8057;47.830;-3.870;2024-02-26T04:09:48;3.77;;;0.73;;
15915;SDS011;8057;47.830;-3.870;2024-02-26T04:13:57;3.80;;;1.00;;
15915;SDS011;8057;47.830;-3.870;2024-02-26T04:18:07;2.03;;;1.00;;
15915;SDS011;8057;47.830;-3.870;2024-02-26T04:22:17;2.08;;;0.85;;
15915;SDS011;8057;47.830;-3.870;2024-02-26T04:26:26;2.17;;;0.70;;
15915;SDS011;8057;47.830;-3.870;2024-02-26T04:30:35;2.77;;;0.97;;
15915;SDS011;8057;47.830;-3.870;2024-02-26T04:34:46;4.53;;;1.27;;
15915;SDS011;8057;47.830;-3.870;2024-02-26T04:38:55;2.63;;;0.93;;
15915;SDS011;8057;47.830;-3.870;2024-02-26T04:43:05;2.00;;;0.65;;
15915;SDS011;8057;47.830;-3.870;2024-02-26T04:47:14;2.50;;;0.80;;
15915;SDS011;8057;47.830;-3.870;2024-02-26T04:51:24;1.03;;;0.67;;
15915;SDS011;8057;47.830;-3.870;2024-02-26T04:55:33;3.13;;;1.00;;
15915;SDS011;8057;47.830;-3.870;2024-02-26T04:59:42;2.97;;;1.03;;
15915;SDS011;8057;47.830;-3.870;2024-02-26T05:03:52;1.33;;;0.77;;
15915;SDS011;8057;47.830;-3.870;2024-02-26T05:08:03;2.90;;;0.90;;
15915;SDS011;8057;47.830;-3.870;2024-02-26T05:12:12;4.63;;;1.00;;
15915;SDS011;8057;47.830;-3.870;2024-02-26T05:16:21;3.97;;;0.93;;
15915;SDS011;8057;47.830;-3.870;2024-02-26T05:20:31;1.80;;;0.80;;
15915;SDS011;8057;47.830;-3.870;2024-02-26T05:24:43;2.90;;;0.90;;
15915;SDS011;8057;47.830;-3.870;2024-02-26T05:28:52;4.13;;;0.87;;
15915;SDS011;8057;47.830;-3.870;2024-02-26T05:33:06;2.00;;;1.00;;
15915;SDS011;8057;47.830;-3.870;2024-02-26T05:37:15;3.27;;;0.90;;
15915;SDS011;8057;47.830;-3.870;2024-02-26T05:45:53;1.73;;;0.70;;
15915;SDS011;8057;47.830;-3.870;2024-02-26T05:50:02;1.93;;;0.87;;
15915;SDS011;8057;47.830;-3.870;2024-02-26T05:54:11;1.70;;;0.70;;
15915;SDS011;8057;47.830;-3.870;2024-02-26T05:58:22;1.87;;;0.80;;
15915;SDS011;8057;47.830;-3.870;2024-02-26T06:02:31;2.70;;;1.13;;
15915;SDS011;8057;47.830;-3.870;2024-02-26T06:06:40;2.40;;;1.30;;
15915;SDS011;8057;47.830;-3.870;2024-02-26T06:10:49;3.97;;;1.67;;
15915;SDS011;8057;47.830;-3.870;2024-02-26T06:15:00;4.73;;;1.63;;
15915;SDS011;8057;47.830;-3.870;2024-02-26T06:19:09;5.70;;;1.90;;
